sensor_id;sensor_type;location;lat;lon;timestamp;temperature;humidity
33903;DHT22;20194;50.950;5.346;2023-04-25T00:00:26;10.70;11.30
33903;DHT22;20194;50.950;5.346;2023-04-25T00:02:52;10.70;10.80
33903;DHT22;20194;50.950;5.346;2023-04-25T00:05:17;10.50;12.90
33903;DHT22;20194;50.950;5.346;2023-04-25T00:07:44;10.70;13.50
33903;DHT22;20194;50.950;5.346;2023-04-25T00:10:11;10.70;12.50
33903;DHT22;20194;50.950;5.346;2023-04-25T00:12:37;10.70;11.50
33903;DHT22;20194;50.950;5.346;2023-04-25T00:15:04;10.90;10.60
33903;DHT22;20194;50.950;5.346;2023-04-25T00:17:30;10.80;10.00
33903;DHT22;20194;50.950;5.346;2023-04-25T00:19:56;10.90;9.90
33903;DHT22;20194;50.950;5.346;2023-04-25T00:22:23;10.70;10.20
33903;DHT22;20194;50.950;5.346;2023-04-25T00:24:49;10.60;14.40
33903;DHT22;20194;50.950;5.346;2023-04-25T00:27:15;10.70;13.90
33903;DHT22;20194;50.950;5.346;2023-04-25T00:29:41;10.70;12.40
33903;DHT22;20194;50.950;5.346;2023-04-25T00:32:07;10.60;13.70
33903;DHT22;20194;50.950;5.346;2023-04-25T00:34:32;10.50;16.40
33903;DHT22;20194;50.950;5.346;2023-04-25T00:36:58;10.50;17.10
33903;DHT22;20194;50.950;5.346;2023-04-25T00:39:27;10.60;15.00
33903;DHT22;20194;50.950;5.346;2023-04-25T00:41:54;10.50;18.90
33903;DHT22;20194;50.950;5.346;2023-04-25T00:44:20;10.50;18.80
33903;DHT22;20194;50.950;5.346;2023-04-25T00:46:47;10.50;17.40
33903;DHT22;20194;50.950;5.346;2023-04-25T00:49:14;10.50;18.70
33903;DHT22;20194;50.950;5.346;2023-04-25T00:51:41;10.20;23.10
33903;DHT22;20194;50.950;5.346;2023-04-25T00:54:07;10.20;23.00
33903;DHT22;20194;50.950;5.346;2023-04-25T00:56:33;10.30;21.50
33903;DHT22;20194;50.950;5.346;2023-04-25T00:58:58;10.40;20.50
33903;DHT22;20194;50.950;5.346;2023-04-25T01:01:24;10.40;19.50
33903;DHT22;20194;50.950;5.346;2023-04-25T01:03:50;10.50;20.10
33903;DHT22;20194;50.950;5.346;2023-04-25T01:06:16;10.40;19.20
33903;DHT22;20194;50.950;5.346;2023-04-25T01:08:42;10.40;20.40
33903;DHT22;20194;50.950;5.346;2023-04-25T01:11:08;10.30;20.50
33903;DHT22;20194;50.950;5.346;2023-04-25T01:13:35;10.30;21.10
33903;DHT22;20194;50.950;5.346;2023-04-25T01:16:02;10.10;24.90
33903;DHT22;20194;50.950;5.346;2023-04-25T01:18:28;10.30;23.50
33903;DHT22;20194;50.950;5.346;2023-04-25T01:20:54;10.10;24.10
33903;DHT22;20194;50.950;5.346;2023-04-25T01:23:21;10.20;23.30
33903;DHT22;20194;50.950;5.346;2023-04-25T01:25:48;10.30;22.60
33903;DHT22;20194;50.950;5.346;2023-04-25T01:28:15;10.30;22.90
33903;DHT22;20194;50.950;5.346;2023-04-25T01:30:41;10.10;22.90
33903;DHT22;20194;50.950;5.346;2023-04-25T01:33:09;10.10;23.60
33903;DHT22;20194;50.950;5.346;2023-04-25T01:35:34;10.10;23.90
33903;DHT22;20194;50.950;5.346;2023-04-25T01:38:00;10.00;24.20
33903;DHT22;20194;50.950;5.346;2023-04-25T01:40:27;10.10;22.80
33903;DHT22;20194;50.950;5.346;2023-04-25T01:42:53;10.20;24.20
33903;DHT22;20194;50.950;5.346;2023-04-25T01:45:20;10.30;22.20
33903;DHT22;20194;50.950;5.346;2023-04-25T01:47:46;10.50;20.80
33903;DHT22;20194;50.950;5.346;2023-04-25T01:50:15;10.30;22.60
33903;DHT22;20194;50.950;5.346;2023-04-25T01:52:41;10.30;22.20
33903;DHT22;20194;50.950;5.346;2023-04-25T01:55:07;10.40;22.50
33903;DHT22;20194;50.950;5.346;2023-04-25T01:57:33;10.40;21.50
33903;DHT22;20194;50.950;5.346;2023-04-25T02:00:03;10.10;23.80
33903;DHT22;20194;50.950;5.346;2023-04-25T02:02:29;10.00;27.00
33903;DHT22;20194;50.950;5.346;2023-04-25T02:04:55;10.00;26.30
33903;DHT22;20194;50.950;5.346;2023-04-25T02:07:22;10.00;27.10
33903;DHT22;20194;50.950;5.346;2023-04-25T02:09:47;10.00;25.70
33903;DHT22;20194;50.950;5.346;2023-04-25T02:12:13;10.00;27.10
33903;DHT22;20194;50.950;5.346;2023-04-25T02:14:39;9.90;25.90
33903;DHT22;20194;50.950;5.346;2023-04-25T02:17:05;9.90;27.40
33903;DHT22;20194;50.950;5.346;2023-04-25T02:19:31;9.90;27.20
33903;DHT22;20194;50.950;5.346;2023-04-25T02:21:56;9.90;27.20
33903;DHT22;20194;50.950;5.346;2023-04-25T02:24:23;9.90;27.40
33903;DHT22;20194;50.950;5.346;2023-04-25T02:26:49;9.90;27.50
33903;DHT22;20194;50.950;5.346;2023-04-25T02:29:15;9.80;28.90
33903;DHT22;20194;50.950;5.346;2023-04-25T02:31:41;9.90;27.70
33903;DHT22;20194;50.950;5.346;2023-04-25T02:34:07;9.90;27.40
33903;DHT22;20194;50.950;5.346;2023-04-25T02:36:33;10.00;26.50
33903;DHT22;20194;50.950;5.346;2023-04-25T02:39:01;9.90;25.80
33903;DHT22;20194;50.950;5.346;2023-04-25T02:41:27;9.80;28.30
33903;DHT22;20194;50.950;5.346;2023-04-25T02:43:52;9.90;28.10
33903;DHT22;20194;50.950;5.346;2023-04-25T02:46:18;9.90;28.00
33903;DHT22;20194;50.950;5.346;2023-04-25T02:48:44;9.80;29.80
33903;DHT22;20194;50.950;5.346;2023-04-25T02:51:10;9.80;30.00
33903;DHT22;20194;50.950;5.346;2023-04-25T02:53:36;9.60;29.90
33903;DHT22;20194;50.950;5.346;2023-04-25T02:56:01;9.60;31.90
33903;DHT22;20194;50.950;5.346;2023-04-25T02:58:27;9.50;31.30
33903;DHT22;20194;50.950;5.346;2023-04-25T03:00:53;9.60;32.70
33903;DHT22;20194;50.950;5.346;2023-04-25T03:03:20;9.70;32.90
33903;DHT22;20194;50.950;5.346;2023-04-25T03:05:51;9.60;32.10
33903;DHT22;20194;50.950;5.346;2023-04-25T03:08:17;9.70;31.10
33903;DHT22;20194;50.950;5.346;2023-04-25T03:10:43;9.60;30.70
33903;DHT22;20194;50.950;5.346;2023-04-25T03:13:09;9.70;31.10
33903;DHT22;20194;50.950;5.346;2023-04-25T03:15:36;9.70;29.80
33903;DHT22;20194;50.950;5.346;2023-04-25T03:18:02;9.80;29.30
33903;DHT22;20194;50.950;5.346;2023-04-25T03:20:27;9.70;31.30
33903;DHT22;20194;50.950;5.346;2023-04-25T03:22:53;9.60;30.70
33903;DHT22;20194;50.950;5.346;2023-04-25T03:25:19;9.70;31.90
33903;DHT22;20194;50.950;5.346;2023-04-25T03:27:45;9.70;30.50
33903;DHT22;20194;50.950;5.346;2023-04-25T03:30:11;9.60;30.90
33903;DHT22;20194;50.950;5.346;2023-04-25T03:32:36;9.60;33.60
33903;DHT22;20194;50.950;5.346;2023-04-25T03:35:02;9.50;33.80
33903;DHT22;20194;50.950;5.346;2023-04-25T03:37:28;9.60;31.70
33903;DHT22;20194;50.950;5.346;2023-04-25T03:39:54;9.60;34.40
33903;DHT22;20194;50.950;5.346;2023-04-25T03:42:20;9.60;33.60
33903;DHT22;20194;50.950;5.346;2023-04-25T03:44:48;9.60;32.40
33903;DHT22;20194;50.950;5.346;2023-04-25T03:47:14;9.70;31.30
33903;DHT22;20194;50.950;5.346;2023-04-25T03:49:41;9.60;32.10
33903;DHT22;20194;50.950;5.346;2023-04-25T03:52:06;9.70;30.60
33903;DHT22;20194;50.950;5.346;2023-04-25T03:54:32;9.80;30.50
33903;DHT22;20194;50.950;5.346;2023-04-25T03:56:58;9.80;30.10
33903;DHT22;20194;50.950;5.346;2023-04-25T03:59:24;9.80;29.90
33903;DHT22;20194;50.950;5.346;2023-04-25T04:01:51;9.60;30.50
33903;DHT22;20194;50.950;5.346;2023-04-25T04:04:17;9.60;33.30
33903;DHT22;20194;50.950;5.346;2023-04-25T04:06:43;9.50;34.30
33903;DHT22;20194;50.950;5.346;2023-04-25T04:09:10;9.50;34.40
33903;DHT22;20194;50.950;5.346;2023-04-25T04:11:37;9.40;34.60
33903;DHT22;20194;50.950;5.346;2023-04-25T04:14:05;9.40;35.80
33903;DHT22;20194;50.950;5.346;2023-04-25T04:16:31;9.30;35.70
33903;DHT22;20194;50.950;5.346;2023-04-25T04:18:57;9.20;37.00
33903;DHT22;20194;50.950;5.346;2023-04-25T04:21:22;8.80;36.80
33903;DHT22;20194;50.950;5.346;2023-04-25T04:23:48;8.70;39.60
33903;DHT22;20194;50.950;5.346;2023-04-25T04:26:14;8.60;40.50
33903;DHT22;20194;50.950;5.346;2023-04-25T04:28:42;8.70;39.60
33903;DHT22;20194;50.950;5.346;2023-04-25T04:31:12;8.80;38.00
33903;DHT22;20194;50.950;5.346;2023-04-25T04:33:38;9.00;34.80
33903;DHT22;20194;50.950;5.346;2023-04-25T04:36:04;8.90;33.90
33903;DHT22;20194;50.950;5.346;2023-04-25T04:38:30;9.00;33.30
33903;DHT22;20194;50.950;5.346;2023-04-25T04:40:56;9.00;30.30
33903;DHT22;20194;50.950;5.346;2023-04-25T04:43:22;8.90;30.90
33903;DHT22;20194;50.950;5.346;2023-04-25T04:45:48;9.00;29.70
33903;DHT22;20194;50.950;5.346;2023-04-25T04:48:16;9.10;28.40
33903;DHT22;20194;50.950;5.346;2023-04-25T04:50:45;9.10;26.60
33903;DHT22;20194;50.950;5.346;2023-04-25T04:53:11;9.00;28.00
33903;DHT22;20194;50.950;5.346;2023-04-25T04:55:37;9.10;28.00
33903;DHT22;20194;50.950;5.346;2023-04-25T04:58:03;9.20;25.90
33903;DHT22;20194;50.950;5.346;2023-04-25T05:00:28;9.10;26.60
33903;DHT22;20194;50.950;5.346;2023-04-25T05:02:55;9.20;24.60
33903;DHT22;20194;50.950;5.346;2023-04-25T05:05:21;9.00;25.60
33903;DHT22;20194;50.950;5.346;2023-04-25T05:07:47;9.20;25.60
33903;DHT22;20194;50.950;5.346;2023-04-25T05:10:12;9.30;23.30
33903;DHT22;20194;50.950;5.346;2023-04-25T05:12:38;9.40;23.00
33903;DHT22;20194;50.950;5.346;2023-04-25T05:15:04;9.50;21.80
33903;DHT22;20194;50.950;5.346;2023-04-25T05:17:30;9.50;22.60
33903;DHT22;20194;50.950;5.346;2023-04-25T05:19:56;9.60;23.70
33903;DHT22;20194;50.950;5.346;2023-04-25T05:22:22;9.70;20.40
33903;DHT22;20194;50.950;5.346;2023-04-25T05:24:48;9.70;19.10
33903;DHT22;20194;50.950;5.346;2023-04-25T05:27:17;9.70;18.70
33903;DHT22;20194;50.950;5.346;2023-04-25T05:29:43;9.50;20.60
33903;DHT22;20194;50.950;5.346;2023-04-25T05:32:09;9.40;22.10
33903;DHT22;20194;50.950;5.346;2023-04-25T05:34:35;9.50;21.90
33903;DHT22;20194;50.950;5.346;2023-04-25T05:37:01;9.60;19.40
33903;DHT22;20194;50.950;5.346;2023-04-25T05:39:27;9.50;21.30
33903;DHT22;20194;50.950;5.346;2023-04-25T05:41:52;9.50;21.60
33903;DHT22;20194;50.950;5.346;2023-04-25T05:44:18;9.40;22.80
33903;DHT22;20194;50.950;5.346;2023-04-25T05:46:44;9.50;22.10
33903;DHT22;20194;50.950;5.346;2023-04-25T05:49:10;9.60;21.20
33903;DHT22;20194;50.950;5.346;2023-04-25T05:51:35;9.70;20.80
33903;DHT22;20194;50.950;5.346;2023-04-25T05:54:01;9.80;21.30
33903;DHT22;20194;50.950;5.346;2023-04-25T05:56:27;9.80;20.50
33903;DHT22;20194;50.950;5.346;2023-04-25T05:58:53;9.80;20.80
33903;DHT22;20194;50.950;5.346;2023-04-25T06:01:18;10.00;18.30
33903;DHT22;20194;50.950;5.346;2023-04-25T06:03:44;10.00;17.70
33903;DHT22;20194;50.950;5.346;2023-04-25T06:06:11;9.90;20.80
33903;DHT22;20194;50.950;5.346;2023-04-25T06:08:37;10.00;19.80
33903;DHT22;20194;50.950;5.346;2023-04-25T06:11:03;9.90;18.50
33903;DHT22;20194;50.950;5.346;2023-04-25T06:13:29;9.60;20.50
33903;DHT22;20194;50.950;5.346;2023-04-25T06:15:55;9.50;23.40
33903;DHT22;20194;50.950;5.346;2023-04-25T06:18:21;9.50;23.80
33903;DHT22;20194;50.950;5.346;2023-04-25T06:20:47;9.60;24.40
33903;DHT22;20194;50.950;5.346;2023-04-25T06:23:12;9.80;23.70
33903;DHT22;20194;50.950;5.346;2023-04-25T06:25:38;9.80;22.20
33903;DHT22;20194;50.950;5.346;2023-04-25T06:28:04;9.80;24.20
33903;DHT22;20194;50.950;5.346;2023-04-25T06:30:29;9.80;23.00
33903;DHT22;20194;50.950;5.346;2023-04-25T06:32:55;9.80;23.90
33903;DHT22;20194;50.950;5.346;2023-04-25T06:35:21;9.90;23.60
33903;DHT22;20194;50.950;5.346;2023-04-25T06:37:47;9.70;25.20
33903;DHT22;20194;50.950;5.346;2023-04-25T06:40:13;9.60;24.80
33903;DHT22;20194;50.950;5.346;2023-04-25T06:42:38;9.50;26.80
33903;DHT22;20194;50.950;5.346;2023-04-25T06:45:04;9.70;26.60
33903;DHT22;20194;50.950;5.346;2023-04-25T06:47:31;9.40;29.60
33903;DHT22;20194;50.950;5.346;2023-04-25T06:49:56;9.50;28.50
33903;DHT22;20194;50.950;5.346;2023-04-25T06:52:22;9.50;27.30
33903;DHT22;20194;50.950;5.346;2023-04-25T06:54:47;9.60;28.30
33903;DHT22;20194;50.950;5.346;2023-04-25T06:57:13;9.60;29.20
33903;DHT22;20194;50.950;5.346;2023-04-25T06:59:39;9.80;28.30
33903;DHT22;20194;50.950;5.346;2023-04-25T07:02:05;9.80;23.90
33903;DHT22;20194;50.950;5.346;2023-04-25T07:04:31;9.70;25.50
33903;DHT22;20194;50.950;5.346;2023-04-25T07:06:57;9.70;24.90
33903;DHT22;20194;50.950;5.346;2023-04-25T07:09:22;9.90;24.50
33903;DHT22;20194;50.950;5.346;2023-04-25T07:11:48;10.00;23.50
33903;DHT22;20194;50.950;5.346;2023-04-25T07:14:14;9.90;21.60
33903;DHT22;20194;50.950;5.346;2023-04-25T07:16:40;9.90;21.00
33903;DHT22;20194;50.950;5.346;2023-04-25T07:19:06;10.00;20.20
33903;DHT22;20194;50.950;5.346;2023-04-25T07:21:32;10.10;20.80
33903;DHT22;20194;50.950;5.346;2023-04-25T07:23:58;10.20;21.40
33903;DHT22;20194;50.950;5.346;2023-04-25T07:26:24;10.30;19.20
33903;DHT22;20194;50.950;5.346;2023-04-25T07:28:50;10.40;18.30
33903;DHT22;20194;50.950;5.346;2023-04-25T07:31:17;10.30;16.70
33903;DHT22;20194;50.950;5.346;2023-04-25T07:33:44;10.20;16.10
33903;DHT22;20194;50.950;5.346;2023-04-25T07:36:11;10.10;17.60
33903;DHT22;20194;50.950;5.346;2023-04-25T07:38:38;10.30;19.00
33903;DHT22;20194;50.950;5.346;2023-04-25T07:41:04;10.30;11.20
33903;DHT22;20194;50.950;5.346;2023-04-25T07:43:29;10.50;9.30
33903;DHT22;20194;50.950;5.346;2023-04-25T07:45:56;10.50;1.00
33903;DHT22;20194;50.950;5.346;2023-04-25T07:48:21;10.60;1.40
33903;DHT22;20194;50.950;5.346;2023-04-25T07:50:47;10.50;1.00
33903;DHT22;20194;50.950;5.346;2023-04-25T07:53:13;10.50;1.00
33903;DHT22;20194;50.950;5.346;2023-04-25T07:55:39;10.40;1.00
33903;DHT22;20194;50.950;5.346;2023-04-25T07:58:06;10.40;1.00
33903;DHT22;20194;50.950;5.346;2023-04-25T08:00:31;10.60;1.00
33903;DHT22;20194;50.950;5.346;2023-04-25T08:02:57;10.70;1.00
33903;DHT22;20194;50.950;5.346;2023-04-25T08:05:23;10.80;1.00
33903;DHT22;20194;50.950;5.346;2023-04-25T08:07:48;10.70;1.00
33903;DHT22;20194;50.950;5.346;2023-04-25T08:10:15;10.70;1.00
33903;DHT22;20194;50.950;5.346;2023-04-25T08:12:40;10.70;1.00
33903;DHT22;20194;50.950;5.346;2023-04-25T08:15:06;10.80;1.00
33903;DHT22;20194;50.950;5.346;2023-04-25T08:17:32;10.80;1.00
33903;DHT22;20194;50.950;5.346;2023-04-25T08:19:58;10.80;1.00
33903;DHT22;20194;50.950;5.346;2023-04-25T08:22:24;10.90;1.00
33903;DHT22;20194;50.950;5.346;2023-04-25T08:24:49;11.00;1.00
33903;DHT22;20194;50.950;5.346;2023-04-25T08:27:15;11.00;1.00
33903;DHT22;20194;50.950;5.346;2023-04-25T08:29:41;10.90;1.00
33903;DHT22;20194;50.950;5.346;2023-04-25T08:32:07;10.90;1.00
33903;DHT22;20194;50.950;5.346;2023-04-25T08:34:33;11.00;1.00
33903;DHT22;20194;50.950;5.346;2023-04-25T08:36:59;11.00;1.00
33903;DHT22;20194;50.950;5.346;2023-04-25T08:39:25;11.10;1.00
33903;DHT22;20194;50.950;5.346;2023-04-25T08:41:51;11.20;1.00
33903;DHT22;20194;50.950;5.346;2023-04-25T08:44:19;11.10;1.00
33903;DHT22;20194;50.950;5.346;2023-04-25T08:46:47;11.00;1.00
33903;DHT22;20194;50.950;5.346;2023-04-25T08:49:17;10.80;1.00
33903;DHT22;20194;50.950;5.346;2023-04-25T08:51:47;10.80;1.00
33903;DHT22;20194;50.950;5.346;2023-04-25T08:54:14;10.90;1.00
33903;DHT22;20194;50.950;5.346;2023-04-25T08:56:43;11.00;1.00
33903;DHT22;20194;50.950;5.346;2023-04-25T08:59:11;11.10;1.00
33903;DHT22;20194;50.950;5.346;2023-04-25T09:01:36;11.10;1.00
33903;DHT22;20194;50.950;5.346;2023-04-25T09:04:02;11.20;1.00
33903;DHT22;20194;50.950;5.346;2023-04-25T09:06:31;11.20;1.00
33903;DHT22;20194;50.950;5.346;2023-04-25T09:09:08;10.90;1.00
33903;DHT22;20194;50.950;5.346;2023-04-25T09:11:36;10.90;1.00
33903;DHT22;20194;50.950;5.346;2023-04-25T09:14:22;11.00;1.00
33903;DHT22;20194;50.950;5.346;2023-04-25T09:16:58;11.10;1.00
33903;DHT22;20194;50.950;5.346;2023-04-25T09:19:32;10.80;1.00
33903;DHT22;20194;50.950;5.346;2023-04-25T09:22:00;11.00;1.00
33903;DHT22;20194;50.950;5.346;2023-04-25T09:24:40;11.20;1.00
33903;DHT22;20194;50.950;5.346;2023-04-25T09:27:10;11.20;1.00
33903;DHT22;20194;50.950;5.346;2023-04-25T09:29:39;11.50;1.00
33903;DHT22;20194;50.950;5.346;2023-04-25T09:32:26;12.00;1.00
33903;DHT22;20194;50.950;5.346;2023-04-25T09:34:58;12.40;1.00
33903;DHT22;20194;50.950;5.346;2023-04-25T09:37:27;12.60;1.00
33903;DHT22;20194;50.950;5.346;2023-04-25T09:39:58;12.80;1.00
33903;DHT22;20194;50.950;5.346;2023-04-25T09:42:30;13.10;1.00
33903;DHT22;20194;50.950;5.346;2023-04-25T09:44:58;13.50;1.00
33903;DHT22;20194;50.950;5.346;2023-04-25T09:47:26;13.60;1.00
33903;DHT22;20194;50.950;5.346;2023-04-25T09:49:52;13.70;99.90
33903;DHT22;20194;50.950;5.346;2023-04-25T09:52:20;13.80;1.00
33903;DHT22;20194;50.950;5.346;2023-04-25T09:54:47;14.30;1.00
33903;DHT22;20194;50.950;5.346;2023-04-25T09:57:20;14.50;1.00
33903;DHT22;20194;50.950;5.346;2023-04-25T09:59:51;14.80;1.00
33903;DHT22;20194;50.950;5.346;2023-04-25T10:02:24;14.80;99.90
33903;DHT22;20194;50.950;5.346;2023-04-25T10:04:51;14.40;99.90
33903;DHT22;20194;50.950;5.346;2023-04-25T10:07:22;14.00;99.90
33903;DHT22;20194;50.950;5.346;2023-04-25T10:09:57;14.10;99.90
33903;DHT22;20194;50.950;5.346;2023-04-25T10:12:26;14.00;99.90
33903;DHT22;20194;50.950;5.346;2023-04-25T10:14:52;13.70;99.90
33903;DHT22;20194;50.950;5.346;2023-04-25T10:17:20;13.30;99.90
33903;DHT22;20194;50.950;5.346;2023-04-25T10:19:49;13.00;99.90
33903;DHT22;20194;50.950;5.346;2023-04-25T10:22:35;12.80;1.00
33903;DHT22;20194;50.950;5.346;2023-04-25T10:25:02;12.90;1.00
33903;DHT22;20194;50.950;5.346;2023-04-25T10:27:32;12.80;1.00
33903;DHT22;20194;50.950;5.346;2023-04-25T10:32:31;12.80;1.00
33903;DHT22;20194;50.950;5.346;2023-04-25T10:35:29;12.20;1.00
33903;DHT22;20194;50.950;5.346;2023-04-25T10:38:13;11.80;1.00
33903;DHT22;20194;50.950;5.346;2023-04-25T10:40:39;11.70;1.00
33903;DHT22;20194;50.950;5.346;2023-04-25T10:46:23;11.70;1.00
33903;DHT22;20194;50.950;5.346;2023-04-25T10:48:55;11.80;1.00
33903;DHT22;20194;50.950;5.346;2023-04-25T10:51:34;11.90;1.00
33903;DHT22;20194;50.950;5.346;2023-04-25T10:54:01;12.30;1.00
33903;DHT22;20194;50.950;5.346;2023-04-25T10:56:29;12.30;1.00
33903;DHT22;20194;50.950;5.346;2023-04-25T10:59:16;12.40;1.00
33903;DHT22;20194;50.950;5.346;2023-04-25T11:01:44;12.70;1.00
33903;DHT22;20194;50.950;5.346;2023-04-25T11:04:39;12.70;1.00
33903;DHT22;20194;50.950;5.346;2023-04-25T11:07:38;12.60;1.00
33903;DHT22;20194;50.950;5.346;2023-04-25T11:10:04;12.30;1.00
33903;DHT22;20194;50.950;5.346;2023-04-25T11:12:33;12.40;99.90
33903;DHT22;20194;50.950;5.346;2023-04-25T11:15:03;12.40;99.90
33903;DHT22;20194;50.950;5.346;2023-04-25T11:17:29;12.60;99.90
33903;DHT22;20194;50.950;5.346;2023-04-25T11:19:57;12.60;99.90
33903;DHT22;20194;50.950;5.346;2023-04-25T11:22:23;12.60;99.90
33903;DHT22;20194;50.950;5.346;2023-04-25T11:24:49;12.70;99.90
33903;DHT22;20194;50.950;5.346;2023-04-25T11:27:16;12.80;99.90
33903;DHT22;20194;50.950;5.346;2023-04-25T11:29:42;12.90;99.90
33903;DHT22;20194;50.950;5.346;2023-04-25T11:32:08;13.00;99.90
33903;DHT22;20194;50.950;5.346;2023-04-25T11:34:33;13.20;99.90
33903;DHT22;20194;50.950;5.346;2023-04-25T11:37:00;13.50;99.90
33903;DHT22;20194;50.950;5.346;2023-04-25T11:39:27;13.70;99.90
33903;DHT22;20194;50.950;5.346;2023-04-25T11:41:53;14.00;99.90
33903;DHT22;20194;50.950;5.346;2023-04-25T11:44:20;14.10;1.00
33903;DHT22;20194;50.950;5.346;2023-04-25T11:46:47;14.20;89.20
33903;DHT22;20194;50.950;5.346;2023-04-25T11:49:13;14.50;99.90
33903;DHT22;20194;50.950;5.346;2023-04-25T11:51:46;14.60;99.90
33903;DHT22;20194;50.950;5.346;2023-04-25T11:54:13;14.70;60.90
33903;DHT22;20194;50.950;5.346;2023-04-25T11:56:43;14.80;99.90
33903;DHT22;20194;50.950;5.346;2023-04-25T11:59:09;14.80;99.90
33903;DHT22;20194;50.950;5.346;2023-04-25T12:01:36;15.10;99.90
33903;DHT22;20194;50.950;5.346;2023-04-25T12:04:12;15.20;1.00
33903;DHT22;20194;50.950;5.346;2023-04-25T12:06:39;15.20;99.90
33903;DHT22;20194;50.950;5.346;2023-04-25T12:09:08;15.20;99.90
33903;DHT22;20194;50.950;5.346;2023-04-25T12:11:49;15.00;99.90
33903;DHT22;20194;50.950;5.346;2023-04-25T12:14:23;14.80;1.00
33903;DHT22;20194;50.950;5.346;2023-04-25T12:16:54;14.70;99.90
33903;DHT22;20194;50.950;5.346;2023-04-25T12:19:21;14.50;1.00
33903;DHT22;20194;50.950;5.346;2023-04-25T12:21:47;14.50;1.00
33903;DHT22;20194;50.950;5.346;2023-04-25T12:26:53;13.60;99.90
33903;DHT22;20194;50.950;5.346;2023-04-25T12:29:25;12.80;1.00
33903;DHT22;20194;50.950;5.346;2023-04-25T12:31:52;12.50;1.00
33903;DHT22;20194;50.950;5.346;2023-04-25T12:34:19;12.20;1.00
33903;DHT22;20194;50.950;5.346;2023-04-25T12:36:45;12.10;1.00
33903;DHT22;20194;50.950;5.346;2023-04-25T12:39:18;11.90;1.00
33903;DHT22;20194;50.950;5.346;2023-04-25T12:41:45;11.90;1.00
33903;DHT22;20194;50.950;5.346;2023-04-25T12:44:12;12.00;1.00
33903;DHT22;20194;50.950;5.346;2023-04-25T12:46:38;12.10;1.00
33903;DHT22;20194;50.950;5.346;2023-04-25T12:49:05;12.00;1.00
33903;DHT22;20194;50.950;5.346;2023-04-25T12:51:32;12.00;1.00
33903;DHT22;20194;50.950;5.346;2023-04-25T12:53:59;12.30;1.00
33903;DHT22;20194;50.950;5.346;2023-04-25T12:56:28;12.40;1.00
33903;DHT22;20194;50.950;5.346;2023-04-25T12:58:54;12.40;1.00
33903;DHT22;20194;50.950;5.346;2023-04-25T13:01:21;12.50;1.00
33903;DHT22;20194;50.950;5.346;2023-04-25T13:03:47;12.70;1.00
33903;DHT22;20194;50.950;5.346;2023-04-25T13:06:13;12.80;1.00
33903;DHT22;20194;50.950;5.346;2023-04-25T13:08:39;12.80;1.00
33903;DHT22;20194;50.950;5.346;2023-04-25T13:11:07;13.00;99.90
33903;DHT22;20194;50.950;5.346;2023-04-25T13:13:32;13.20;99.90
33903;DHT22;20194;50.950;5.346;2023-04-25T13:16:03;13.50;99.90
33903;DHT22;20194;50.950;5.346;2023-04-25T13:18:30;13.70;81.00
33903;DHT22;20194;50.950;5.346;2023-04-25T13:20:57;13.70;1.00
33903;DHT22;20194;50.950;5.346;2023-04-25T13:23:25;13.70;99.90
33903;DHT22;20194;50.950;5.346;2023-04-25T13:25:51;13.60;99.90
33903;DHT22;20194;50.950;5.346;2023-04-25T13:28:18;13.10;99.90
33903;DHT22;20194;50.950;5.346;2023-04-25T13:30:44;13.00;1.00
33903;DHT22;20194;50.950;5.346;2023-04-25T13:33:11;12.70;1.00
33903;DHT22;20194;50.950;5.346;2023-04-25T13:35:37;12.80;1.00
33903;DHT22;20194;50.950;5.346;2023-04-25T13:38:03;12.70;1.00
33903;DHT22;20194;50.950;5.346;2023-04-25T13:40:30;12.60;1.00
33903;DHT22;20194;50.950;5.346;2023-04-25T13:42:56;12.50;1.00
33903;DHT22;20194;50.950;5.346;2023-04-25T13:45:22;12.70;1.00
33903;DHT22;20194;50.950;5.346;2023-04-25T13:47:47;12.80;1.00
33903;DHT22;20194;50.950;5.346;2023-04-25T13:50:13;13.00;99.90
33903;DHT22;20194;50.950;5.346;2023-04-25T13:52:39;13.00;99.90
33903;DHT22;20194;50.950;5.346;2023-04-25T13:55:06;12.90;99.90
33903;DHT22;20194;50.950;5.346;2023-04-25T13:57:33;13.00;99.90
33903;DHT22;20194;50.950;5.346;2023-04-25T13:59:59;13.20;99.90
33903;DHT22;20194;50.950;5.346;2023-04-25T14:02:25;12.70;1.00
33903;DHT22;20194;50.950;5.346;2023-04-25T14:04:51;12.90;99.90
33903;DHT22;20194;50.950;5.346;2023-04-25T14:07:17;13.00;99.90
33903;DHT22;20194;50.950;5.346;2023-04-25T14:09:46;13.00;99.90
33903;DHT22;20194;50.950;5.346;2023-04-25T14:12:12;12.70;99.90
33903;DHT22;20194;50.950;5.346;2023-04-25T14:14:38;12.40;99.90
33903;DHT22;20194;50.950;5.346;2023-04-25T14:17:04;12.60;99.90
33903;DHT22;20194;50.950;5.346;2023-04-25T14:19:30;12.50;99.90
33903;DHT22;20194;50.950;5.346;2023-04-25T14:21:56;12.60;99.90
33903;DHT22;20194;50.950;5.346;2023-04-25T14:24:21;12.50;99.90
33903;DHT22;20194;50.950;5.346;2023-04-25T14:26:47;12.70;1.00
33903;DHT22;20194;50.950;5.346;2023-04-25T14:29:13;12.80;99.90
33903;DHT22;20194;50.950;5.346;2023-04-25T14:31:39;13.00;1.00
33903;DHT22;20194;50.950;5.346;2023-04-25T14:34:05;13.10;99.90
33903;DHT22;20194;50.950;5.346;2023-04-25T14:36:32;13.10;99.90
33903;DHT22;20194;50.950;5.346;2023-04-25T14:38:58;13.20;98.70
33903;DHT22;20194;50.950;5.346;2023-04-25T14:41:24;13.00;1.00
33903;DHT22;20194;50.950;5.346;2023-04-25T14:43:50;13.10;25.00
33903;DHT22;20194;50.950;5.346;2023-04-25T14:46:16;13.00;99.90
33903;DHT22;20194;50.950;5.346;2023-04-25T14:48:42;12.80;99.90
33903;DHT22;20194;50.950;5.346;2023-04-25T14:51:08;12.90;99.90
33903;DHT22;20194;50.950;5.346;2023-04-25T14:53:34;13.00;99.90
33903;DHT22;20194;50.950;5.346;2023-04-25T14:56:00;13.20;99.90
33903;DHT22;20194;50.950;5.346;2023-04-25T14:58:26;13.30;99.90
33903;DHT22;20194;50.950;5.346;2023-04-25T15:00:52;13.30;99.90
33903;DHT22;20194;50.950;5.346;2023-04-25T15:03:18;13.00;99.90
33903;DHT22;20194;50.950;5.346;2023-04-25T15:05:44;12.80;99.90
33903;DHT22;20194;50.950;5.346;2023-04-25T15:08:09;12.80;99.90
33903;DHT22;20194;50.950;5.346;2023-04-25T15:10:38;12.60;99.90
33903;DHT22;20194;50.950;5.346;2023-04-25T15:13:04;12.50;77.10
33903;DHT22;20194;50.950;5.346;2023-04-25T15:15:30;12.50;99.90
33903;DHT22;20194;50.950;5.346;2023-04-25T15:17:56;12.50;99.90
33903;DHT22;20194;50.950;5.346;2023-04-25T15:20:22;12.60;99.90
33903;DHT22;20194;50.950;5.346;2023-04-25T15:22:48;12.60;99.90
33903;DHT22;20194;50.950;5.346;2023-04-25T15:25:15;12.80;99.90
33903;DHT22;20194;50.950;5.346;2023-04-25T15:27:43;12.90;99.90
33903;DHT22;20194;50.950;5.346;2023-04-25T15:30:11;12.70;99.90
33903;DHT22;20194;50.950;5.346;2023-04-25T15:32:39;12.60;99.90
33903;DHT22;20194;50.950;5.346;2023-04-25T15:35:05;12.40;1.00
33903;DHT22;20194;50.950;5.346;2023-04-25T15:37:32;12.30;1.00
33903;DHT22;20194;50.950;5.346;2023-04-25T15:40:05;12.30;1.00
33903;DHT22;20194;50.950;5.346;2023-04-25T15:42:44;12.30;1.00
33903;DHT22;20194;50.950;5.346;2023-04-25T15:45:16;12.40;1.00
33903;DHT22;20194;50.950;5.346;2023-04-25T15:47:43;12.60;1.00